Huslia Airport
PAHL : now visible

Airfield :











YOU CAN JOIN US ON...

 
LOGIN :

Register | Disclaimer

   EN    FR    IT 

 









Legend :    VFR   Marginal VFR   IFR   Intensive IFR   Very Intensive IFR
Visi :
Ceiling :
>= 8 km
>= 3000ft
5 to 8 km
1000 to 3000 ft
1500m to 5 km
500 to 1000 ft
800 to 1500m
200 to 500 ft
< 800m
< 200 ft
Symbols :   Thunderstorms  Fog  Heavy snow  Heavy precipitations  Wind > 20 kt






- Airport Elevation : 220 ft
- IATA code : HLA


PAHL - Huslia

CURRENT METAR :
  • 242216Z AUTO 00000KT 10SM BKN002 OVC048 M13/M14 A3004 RMK AO2 FZRANO

EXPIRED METARs :
  • 242156Z AUTO 00000KT 10SM FEW002 OVC048 M13/M15 A3004 RMK AO2 SLP178 T11331150 FZRANO
  • 242136Z AUTO 00000KT 10SM SCT002 SCT017 OVC048 M14/M16 A3003 RMK AO2 FZRANO
  • 242056Z AUTO 00000KT 10SM OVC017 M14/M16 A3002 RMK AO2 SLP173 T11441161 51012 FZRANO
  • 242018Z AUTO 00000KT 10SM FEW001 SCT011 OVC017 M16/M17 A3001 RMK AO2 FZRANO
  • 242006Z AUTO 00000KT 9SM FEW001 OVC014 M16/M17 A3001 RMK AO2 FZRANO
  • 241956Z AUTO 23003KT 8SM OVC014 M16/M18 A3001 RMK AO2 SLP168 T11561178 FZRANO

TAF N/A
PAZA FIR / North America



MET'MAP, your aeronautical weather chart ! - Copyright ORBIFLY December 2007 - Disclaimer

ORBIFLY MET'MAP TEAM :

Programming & Development : Alexandra Zaïnal
Concept & original design : Baudouin d'Aumeries
Assistance for programming : Marc-Olivier Méhu
Technical & hardware support : Manuel Goepfert

Contact : metmap@orbifly.com




SOURCES & CREDITS :

   NOAA       Earth
Advisory